sensor_id;sensor_type;location;lat;lon;timestamp;P1;durP1;ratioP1;P2;durP2;ratioP2
76393;SDS011;65216;51.090;-115.352;2023-05-23T00:01:23;1.90;;;0.30;;
76393;SDS011;65216;51.090;-115.352;2023-05-23T00:03:50;2.90;;;0.30;;
76393;SDS011;65216;51.090;-115.352;2023-05-23T00:06:20;1.00;;;0.40;;
76393;SDS011;65216;51.090;-115.352;2023-05-23T00:08:47;1.50;;;0.40;;
76393;SDS011;65216;51.090;-115.352;2023-05-23T00:11:15;1.00;;;0.50;;
76393;SDS011;65216;51.090;-115.352;2023-05-23T00:13:49;0.50;;;0.20;;
76393;SDS011;65216;51.090;-115.352;2023-05-23T00:16:16;2.00;;;0.60;;
76393;SDS011;65216;51.090;-115.352;2023-05-23T00:18:43;1.50;;;0.50;;
76393;SDS011;65216;51.090;-115.352;2023-05-23T00:21:11;0.20;;;0.10;;
76393;SDS011;65216;51.090;-115.352;2023-05-23T00:23:42;0.90;;;0.40;;
76393;SDS011;65216;51.090;-115.352;2023-05-23T00:26:09;0.50;;;0.20;;
76393;SDS011;65216;51.090;-115.352;2023-05-23T00:28:37;1.30;;;0.40;;
76393;SDS011;65216;51.090;-115.352;2023-05-23T00:31:04;1.60;;;0.40;;
76393;SDS011;65216;51.090;-115.352;2023-05-23T00:33:32;0.30;;;0.20;;
76393;SDS011;65216;51.090;-115.352;2023-05-23T00:36:02;1.00;;;0.30;;
76393;SDS011;65216;51.090;-115.352;2023-05-23T00:38:34;0.80;;;0.30;;
76393;SDS011;65216;51.090;-115.352;2023-05-23T00:41:04;0.20;;;0.20;;
76393;SDS011;65216;51.090;-115.352;2023-05-23T00:43:31;0.20;;;0.20;;
76393;SDS011;65216;51.090;-115.352;2023-05-23T00:45:59;1.00;;;0.40;;
76393;SDS011;65216;51.090;-115.352;2023-05-23T00:48:27;1.40;;;0.40;;
76393;SDS011;65216;51.090;-115.352;2023-05-23T00:50:55;0.40;;;0.30;;
76393;SDS011;65216;51.090;-115.352;2023-05-23T00:53:23;1.30;;;0.30;;
76393;SDS011;65216;51.090;-115.352;2023-05-23T00:55:53;0.40;;;0.20;;
76393;SDS011;65216;51.090;-115.352;2023-05-23T00:58:20;0.20;;;0.10;;
76393;SDS011;65216;51.090;-115.352;2023-05-23T01:00:48;1.20;;;0.40;;
76393;SDS011;65216;51.090;-115.352;2023-05-23T01:03:15;0.80;;;0.40;;
76393;SDS011;65216;51.090;-115.352;2023-05-23T01:05:43;0.70;;;0.30;;
76393;SDS011;65216;51.090;-115.352;2023-05-23T01:08:11;0.70;;;0.30;;
76393;SDS011;65216;51.090;-115.352;2023-05-23T01:10:40;1.00;;;0.50;;
76393;SDS011;65216;51.090;-115.352;2023-05-23T01:13:21;0.30;;;0.20;;
76393;SDS011;65216;51.090;-115.352;2023-05-23T01:16:35;0.40;;;0.30;;
76393;SDS011;65216;51.090;-115.352;2023-05-23T01:22:31;1.20;;;0.30;;
76393;SDS011;65216;51.090;-115.352;2023-05-23T01:25:43;1.70;;;0.20;;
76393;SDS011;65216;51.090;-115.352;2023-05-23T01:28:28;0.20;;;0.20;;
76393;SDS011;65216;51.090;-115.352;2023-05-23T01:31:03;1.50;;;0.40;;
76393;SDS011;65216;51.090;-115.352;2023-05-23T01:33:34;0.40;;;0.30;;
76393;SDS011;65216;51.090;-115.352;2023-05-23T01:36:03;1.60;;;0.40;;
76393;SDS011;65216;51.090;-115.352;2023-05-23T01:38:33;0.50;;;0.20;;
76393;SDS011;65216;51.090;-115.352;2023-05-23T01:41:00;0.60;;;0.20;;
76393;SDS011;65216;51.090;-115.352;2023-05-23T01:43:30;0.80;;;0.40;;
76393;SDS011;65216;51.090;-115.352;2023-05-23T01:45:59;1.10;;;0.40;;
76393;SDS011;65216;51.090;-115.352;2023-05-23T01:48:30;0.90;;;0.30;;
76393;SDS011;65216;51.090;-115.352;2023-05-23T01:51:02;0.50;;;0.20;;
76393;SDS011;65216;51.090;-115.352;2023-05-23T01:53:33;0.70;;;0.50;;
76393;SDS011;65216;51.090;-115.352;2023-05-23T01:56:02;0.70;;;0.20;;
76393;SDS011;65216;51.090;-115.352;2023-05-23T01:58:29;0.40;;;0.30;;
76393;SDS011;65216;51.090;-115.352;2023-05-23T02:00:56;0.60;;;0.30;;
76393;SDS011;65216;51.090;-115.352;2023-05-23T02:03:24;1.00;;;0.40;;
76393;SDS011;65216;51.090;-115.352;2023-05-23T02:05:51;1.30;;;0.40;;
76393;SDS011;65216;51.090;-115.352;2023-05-23T02:08:18;0.20;;;0.10;;
76393;SDS011;65216;51.090;-115.352;2023-05-23T02:10:45;1.20;;;0.50;;
76393;SDS011;65216;51.090;-115.352;2023-05-23T02:13:12;1.20;;;0.60;;
76393;SDS011;65216;51.090;-115.352;2023-05-23T02:15:39;0.80;;;0.30;;
76393;SDS011;65216;51.090;-115.352;2023-05-23T02:18:06;1.10;;;0.40;;
76393;SDS011;65216;51.090;-115.352;2023-05-23T02:20:33;1.00;;;0.20;;
76393;SDS011;65216;51.090;-115.352;2023-05-23T02:23:00;1.00;;;0.40;;
76393;SDS011;65216;51.090;-115.352;2023-05-23T02:25:28;1.10;;;0.40;;
76393;SDS011;65216;51.090;-115.352;2023-05-23T02:27:55;0.90;;;0.40;;
76393;SDS011;65216;51.090;-115.352;2023-05-23T02:30:22;0.90;;;0.30;;
76393;SDS011;65216;51.090;-115.352;2023-05-23T02:32:52;1.10;;;0.50;;
76393;SDS011;65216;51.090;-115.352;2023-05-23T02:35:19;1.20;;;0.50;;
76393;SDS011;65216;51.090;-115.352;2023-05-23T02:37:46;0.40;;;0.20;;
76393;SDS011;65216;51.090;-115.352;2023-05-23T02:40:13;0.70;;;0.10;;
76393;SDS011;65216;51.090;-115.352;2023-05-23T02:42:40;0.90;;;0.30;;
76393;SDS011;65216;51.090;-115.352;2023-05-23T02:45:07;0.50;;;0.30;;
76393;SDS011;65216;51.090;-115.352;2023-05-23T02:47:37;0.50;;;0.20;;
76393;SDS011;65216;51.090;-115.352;2023-05-23T02:50:05;0.10;;;0.10;;
76393;SDS011;65216;51.090;-115.352;2023-05-23T02:52:34;0.50;;;0.30;;
76393;SDS011;65216;51.090;-115.352;2023-05-23T02:55:02;0.30;;;0.10;;
76393;SDS011;65216;51.090;-115.352;2023-05-23T02:57:29;0.40;;;0.10;;
76393;SDS011;65216;51.090;-115.352;2023-05-23T02:59:56;0.50;;;0.20;;
76393;SDS011;65216;51.090;-115.352;2023-05-23T03:02:26;1.10;;;0.40;;
76393;SDS011;65216;51.090;-115.352;2023-05-23T03:04:53;0.50;;;0.20;;
76393;SDS011;65216;51.090;-115.352;2023-05-23T03:07:22;0.60;;;0.30;;
76393;SDS011;65216;51.090;-115.352;2023-05-23T03:09:52;0.40;;;0.20;;
76393;SDS011;65216;51.090;-115.352;2023-05-23T03:12:19;3.40;;;0.30;;
76393;SDS011;65216;51.090;-115.352;2023-05-23T03:14:46;0.90;;;0.30;;
76393;SDS011;65216;51.090;-115.352;2023-05-23T03:17:13;0.60;;;0.30;;
76393;SDS011;65216;51.090;-115.352;2023-05-23T03:19:40;1.10;;;0.40;;
76393;SDS011;65216;51.090;-115.352;2023-05-23T03:22:10;1.70;;;0.40;;
76393;SDS011;65216;51.090;-115.352;2023-05-23T03:24:37;0.70;;;0.20;;
76393;SDS011;65216;51.090;-115.352;2023-05-23T03:27:04;1.20;;;0.20;;
76393;SDS011;65216;51.090;-115.352;2023-05-23T03:29:31;0.70;;;0.30;;
76393;SDS011;65216;51.090;-115.352;2023-05-23T03:31:58;0.40;;;0.20;;
76393;SDS011;65216;51.090;-115.352;2023-05-23T03:34:25;1.00;;;0.10;;
76393;SDS011;65216;51.090;-115.352;2023-05-23T03:36:52;0.50;;;0.10;;
76393;SDS011;65216;51.090;-115.352;2023-05-23T03:39:19;0.80;;;0.20;;
76393;SDS011;65216;51.090;-115.352;2023-05-23T03:41:47;0.70;;;0.30;;
76393;SDS011;65216;51.090;-115.352;2023-05-23T03:44:14;0.50;;;0.10;;
76393;SDS011;65216;51.090;-115.352;2023-05-23T03:46:41;0.90;;;0.30;;
76393;SDS011;65216;51.090;-115.352;2023-05-23T03:49:08;0.70;;;0.30;;
76393;SDS011;65216;51.090;-115.352;2023-05-23T03:51:38;0.20;;;0.20;;
76393;SDS011;65216;51.090;-115.352;2023-05-23T03:54:10;0.50;;;0.20;;
76393;SDS011;65216;51.090;-115.352;2023-05-23T03:56:37;1.10;;;0.30;;
76393;SDS011;65216;51.090;-115.352;2023-05-23T03:59:06;0.40;;;0.10;;
76393;SDS011;65216;51.090;-115.352;2023-05-23T04:01:33;0.20;;;0.10;;
76393;SDS011;65216;51.090;-115.352;2023-05-23T04:04:00;0.80;;;0.30;;
76393;SDS011;65216;51.090;-115.352;2023-05-23T04:06:27;0.30;;;0.20;;
76393;SDS011;65216;51.090;-115.352;2023-05-23T04:08:56;1.40;;;0.20;;
76393;SDS011;65216;51.090;-115.352;2023-05-23T04:11:23;0.50;;;0.20;;
76393;SDS011;65216;51.090;-115.352;2023-05-23T04:13:50;0.50;;;0.30;;
76393;SDS011;65216;51.090;-115.352;2023-05-23T04:16:18;0.40;;;0.20;;
76393;SDS011;65216;51.090;-115.352;2023-05-23T04:18:47;0.60;;;0.30;;
76393;SDS011;65216;51.090;-115.352;2023-05-23T04:21:15;0.30;;;0.30;;
76393;SDS011;65216;51.090;-115.352;2023-05-23T04:23:45;0.30;;;0.10;;
76393;SDS011;65216;51.090;-115.352;2023-05-23T04:26:15;1.40;;;0.30;;
76393;SDS011;65216;51.090;-115.352;2023-05-23T04:28:45;0.80;;;0.30;;
76393;SDS011;65216;51.090;-115.352;2023-05-23T04:31:14;0.60;;;0.20;;
76393;SDS011;65216;51.090;-115.352;2023-05-23T04:33:41;0.10;;;0.10;;
76393;SDS011;65216;51.090;-115.352;2023-05-23T04:36:08;0.20;;;0.20;;
76393;SDS011;65216;51.090;-115.352;2023-05-23T04:38:35;0.90;;;0.30;;
76393;SDS011;65216;51.090;-115.352;2023-05-23T04:41:06;1.00;;;0.30;;
76393;SDS011;65216;51.090;-115.352;2023-05-23T04:43:36;0.40;;;0.30;;
76393;SDS011;65216;51.090;-115.352;2023-05-23T04:46:11;1.10;;;0.20;;
76393;SDS011;65216;51.090;-115.352;2023-05-23T04:48:38;0.50;;;0.20;;
76393;SDS011;65216;51.090;-115.352;2023-05-23T04:51:07;1.80;;;0.20;;
76393;SDS011;65216;51.090;-115.352;2023-05-23T04:53:34;0.30;;;0.20;;
76393;SDS011;65216;51.090;-115.352;2023-05-23T04:56:02;0.90;;;0.30;;
76393;SDS011;65216;51.090;-115.352;2023-05-23T04:58:29;0.90;;;0.20;;
76393;SDS011;65216;51.090;-115.352;2023-05-23T05:00:56;2.20;;;0.50;;
76393;SDS011;65216;51.090;-115.352;2023-05-23T05:03:23;4.80;;;1.10;;
76393;SDS011;65216;51.090;-115.352;2023-05-23T05:05:51;1.50;;;0.50;;
76393;SDS011;65216;51.090;-115.352;2023-05-23T05:08:18;6.90;;;0.70;;
76393;SDS011;65216;51.090;-115.352;2023-05-23T05:10:45;5.00;;;0.90;;
76393;SDS011;65216;51.090;-115.352;2023-05-23T05:13:12;7.70;;;0.90;;
76393;SDS011;65216;51.090;-115.352;2023-05-23T05:15:42;5.30;;;1.10;;
76393;SDS011;65216;51.090;-115.352;2023-05-23T05:18:09;6.60;;;0.90;;
76393;SDS011;65216;51.090;-115.352;2023-05-23T05:20:37;2.30;;;0.30;;
76393;SDS011;65216;51.090;-115.352;2023-05-23T05:23:09;4.10;;;0.80;;
76393;SDS011;65216;51.090;-115.352;2023-05-23T05:25:36;2.70;;;0.60;;
76393;SDS011;65216;51.090;-115.352;2023-05-23T05:28:06;4.70;;;0.70;;
76393;SDS011;65216;51.090;-115.352;2023-05-23T05:30:33;2.20;;;0.60;;
76393;SDS011;65216;51.090;-115.352;2023-05-23T05:33:04;6.30;;;0.80;;
76393;SDS011;65216;51.090;-115.352;2023-05-23T05:35:33;3.90;;;0.60;;
76393;SDS011;65216;51.090;-115.352;2023-05-23T05:38:00;2.00;;;0.60;;
76393;SDS011;65216;51.090;-115.352;2023-05-23T05:40:30;1.50;;;0.50;;
76393;SDS011;65216;51.090;-115.352;2023-05-23T05:42:58;1.70;;;0.40;;
76393;SDS011;65216;51.090;-115.352;2023-05-23T05:45:25;2.00;;;0.40;;
76393;SDS011;65216;51.090;-115.352;2023-05-23T05:47:52;4.20;;;0.50;;
76393;SDS011;65216;51.090;-115.352;2023-05-23T05:50:19;0.60;;;0.20;;
76393;SDS011;65216;51.090;-115.352;2023-05-23T05:52:46;1.50;;;0.30;;
76393;SDS011;65216;51.090;-115.352;2023-05-23T05:55:13;2.20;;;0.40;;
76393;SDS011;65216;51.090;-115.352;2023-05-23T05:57:40;2.10;;;0.30;;
76393;SDS011;65216;51.090;-115.352;2023-05-23T06:00:12;1.40;;;0.50;;
76393;SDS011;65216;51.090;-115.352;2023-05-23T06:02:44;3.40;;;0.50;;
76393;SDS011;65216;51.090;-115.352;2023-05-23T06:05:16;1.40;;;0.30;;
76393;SDS011;65216;51.090;-115.352;2023-05-23T06:07:47;0.90;;;0.30;;
76393;SDS011;65216;51.090;-115.352;2023-05-23T06:10:15;6.40;;;1.10;;
76393;SDS011;65216;51.090;-115.352;2023-05-23T06:12:44;8.70;;;1.30;;
76393;SDS011;65216;51.090;-115.352;2023-05-23T06:15:12;7.90;;;1.10;;
76393;SDS011;65216;51.090;-115.352;2023-05-23T06:17:41;5.00;;;1.20;;
76393;SDS011;65216;51.090;-115.352;2023-05-23T06:20:10;5.60;;;1.30;;
76393;SDS011;65216;51.090;-115.352;2023-05-23T06:22:37;7.30;;;1.20;;
76393;SDS011;65216;51.090;-115.352;2023-05-23T06:25:04;7.20;;;1.40;;
76393;SDS011;65216;51.090;-115.352;2023-05-23T06:27:32;10.00;;;1.80;;
76393;SDS011;65216;51.090;-115.352;2023-05-23T06:29:59;7.80;;;1.20;;
76393;SDS011;65216;51.090;-115.352;2023-05-23T06:32:26;8.20;;;1.40;;
76393;SDS011;65216;51.090;-115.352;2023-05-23T06:34:53;8.30;;;1.30;;
76393;SDS011;65216;51.090;-115.352;2023-05-23T06:37:20;7.90;;;1.20;;
76393;SDS011;65216;51.090;-115.352;2023-05-23T06:39:47;7.20;;;1.20;;
76393;SDS011;65216;51.090;-115.352;2023-05-23T06:42:14;9.80;;;1.30;;
76393;SDS011;65216;51.090;-115.352;2023-05-23T06:44:43;12.00;;;1.40;;
76393;SDS011;65216;51.090;-115.352;2023-05-23T06:47:10;6.10;;;1.00;;
76393;SDS011;65216;51.090;-115.352;2023-05-23T06:49:40;5.10;;;1.10;;
76393;SDS011;65216;51.090;-115.352;2023-05-23T06:52:08;3.90;;;1.00;;
76393;SDS011;65216;51.090;-115.352;2023-05-23T06:54:35;7.10;;;0.80;;
76393;SDS011;65216;51.090;-115.352;2023-05-23T06:57:05;3.80;;;0.80;;
76393;SDS011;65216;51.090;-115.352;2023-05-23T06:59:32;1.70;;;0.60;;
76393;SDS011;65216;51.090;-115.352;2023-05-23T07:01:59;6.20;;;0.70;;
76393;SDS011;65216;51.090;-115.352;2023-05-23T07:04:26;3.40;;;0.80;;
76393;SDS011;65216;51.090;-115.352;2023-05-23T07:06:56;3.80;;;0.70;;
76393;SDS011;65216;51.090;-115.352;2023-05-23T07:09:23;4.60;;;0.70;;
76393;SDS011;65216;51.090;-115.352;2023-05-23T07:11:50;4.70;;;0.50;;
76393;SDS011;65216;51.090;-115.352;2023-05-23T07:14:20;2.10;;;0.50;;
76393;SDS011;65216;51.090;-115.352;2023-05-23T07:16:47;2.60;;;0.50;;
76393;SDS011;65216;51.090;-115.352;2023-05-23T07:19:17;3.20;;;0.30;;
76393;SDS011;65216;51.090;-115.352;2023-05-23T07:21:46;1.70;;;0.30;;
76393;SDS011;65216;51.090;-115.352;2023-05-23T07:24:13;1.80;;;0.50;;
76393;SDS011;65216;51.090;-115.352;2023-05-23T07:26:40;1.20;;;0.30;;
76393;SDS011;65216;51.090;-115.352;2023-05-23T07:29:10;1.00;;;0.50;;
76393;SDS011;65216;51.090;-115.352;2023-05-23T07:31:37;1.00;;;0.60;;
76393;SDS011;65216;51.090;-115.352;2023-05-23T07:34:07;0.80;;;0.40;;
76393;SDS011;65216;51.090;-115.352;2023-05-23T07:36:34;2.00;;;0.50;;
76393;SDS011;65216;51.090;-115.352;2023-05-23T07:39:03;1.50;;;0.40;;
76393;SDS011;65216;51.090;-115.352;2023-05-23T07:41:30;0.70;;;0.20;;
76393;SDS011;65216;51.090;-115.352;2023-05-23T07:43:56;1.50;;;0.50;;
76393;SDS011;65216;51.090;-115.352;2023-05-23T07:46:24;0.30;;;0.30;;
76393;SDS011;65216;51.090;-115.352;2023-05-23T07:48:54;0.80;;;0.20;;
76393;SDS011;65216;51.090;-115.352;2023-05-23T07:51:23;0.30;;;0.10;;
76393;SDS011;65216;51.090;-115.352;2023-05-23T07:53:50;1.80;;;0.30;;
76393;SDS011;65216;51.090;-115.352;2023-05-23T07:56:17;0.90;;;0.50;;
76393;SDS011;65216;51.090;-115.352;2023-05-23T07:58:43;0.90;;;0.40;;
76393;SDS011;65216;51.090;-115.352;2023-05-23T08:01:11;0.80;;;0.30;;
76393;SDS011;65216;51.090;-115.352;2023-05-23T08:03:38;0.50;;;0.20;;
76393;SDS011;65216;51.090;-115.352;2023-05-23T08:06:07;0.60;;;0.30;;
76393;SDS011;65216;51.090;-115.352;2023-05-23T08:08:34;0.90;;;0.20;;
76393;SDS011;65216;51.090;-115.352;2023-05-23T08:11:02;0.30;;;0.20;;
76393;SDS011;65216;51.090;-115.352;2023-05-23T08:13:30;0.40;;;0.20;;
76393;SDS011;65216;51.090;-115.352;2023-05-23T08:16:16;0.40;;;0.20;;
76393;SDS011;65216;51.090;-115.352;2023-05-23T08:18:43;0.20;;;0.20;;
76393;SDS011;65216;51.090;-115.352;2023-05-23T08:21:13;0.40;;;0.20;;
76393;SDS011;65216;51.090;-115.352;2023-05-23T08:23:43;1.20;;;0.20;;
76393;SDS011;65216;51.090;-115.352;2023-05-23T08:26:10;0.70;;;0.30;;
76393;SDS011;65216;51.090;-115.352;2023-05-23T08:28:37;0.60;;;0.20;;
76393;SDS011;65216;51.090;-115.352;2023-05-23T08:31:06;1.20;;;0.30;;
76393;SDS011;65216;51.090;-115.352;2023-05-23T08:33:33;0.40;;;0.20;;
76393;SDS011;65216;51.090;-115.352;2023-05-23T08:36:00;0.40;;;0.20;;
76393;SDS011;65216;51.090;-115.352;2023-05-23T08:38:27;0.40;;;0.20;;
76393;SDS011;65216;51.090;-115.352;2023-05-23T08:40:55;0.30;;;0.10;;
76393;SDS011;65216;51.090;-115.352;2023-05-23T08:43:27;0.30;;;0.10;;
76393;SDS011;65216;51.090;-115.352;2023-05-23T08:45:59;0.30;;;0.10;;
76393;SDS011;65216;51.090;-115.352;2023-05-23T08:48:37;0.40;;;0.20;;
76393;SDS011;65216;51.090;-115.352;2023-05-23T08:51:04;0.20;;;0.20;;
76393;SDS011;65216;51.090;-115.352;2023-05-23T08:53:35;0.20;;;0.10;;
76393;SDS011;65216;51.090;-115.352;2023-05-23T08:56:07;0.20;;;0.10;;
76393;SDS011;65216;51.090;-115.352;2023-05-23T08:58:36;0.90;;;0.20;;
76393;SDS011;65216;51.090;-115.352;2023-05-23T09:01:05;0.60;;;0.20;;
76393;SDS011;65216;51.090;-115.352;2023-05-23T09:03:35;0.20;;;0.10;;
76393;SDS011;65216;51.090;-115.352;2023-05-23T09:06:06;0.30;;;0.20;;
76393;SDS011;65216;51.090;-115.352;2023-05-23T09:08:33;0.40;;;0.30;;
76393;SDS011;65216;51.090;-115.352;2023-05-23T09:11:02;0.10;;;0.10;;
76393;SDS011;65216;51.090;-115.352;2023-05-23T09:13:31;0.40;;;0.30;;
76393;SDS011;65216;51.090;-115.352;2023-05-23T09:16:02;0.80;;;0.10;;
76393;SDS011;65216;51.090;-115.352;2023-05-23T09:18:41;1.50;;;0.30;;
76393;SDS011;65216;51.090;-115.352;2023-05-23T09:21:10;0.30;;;0.30;;
76393;SDS011;65216;51.090;-115.352;2023-05-23T09:23:39;0.40;;;0.10;;
76393;SDS011;65216;51.090;-115.352;2023-05-23T09:26:10;1.10;;;0.30;;
76393;SDS011;65216;51.090;-115.352;2023-05-23T09:28:42;0.90;;;0.20;;
76393;SDS011;65216;51.090;-115.352;2023-05-23T09:31:09;1.20;;;0.50;;
76393;SDS011;65216;51.090;-115.352;2023-05-23T09:33:46;1.70;;;0.10;;
76393;SDS011;65216;51.090;-115.352;2023-05-23T09:36:18;1.00;;;0.30;;
76393;SDS011;65216;51.090;-115.352;2023-05-23T09:38:47;0.20;;;0.10;;
76393;SDS011;65216;51.090;-115.352;2023-05-23T09:41:19;0.00;;;0.00;;
76393;SDS011;65216;51.090;-115.352;2023-05-23T09:43:53;0.10;;;0.10;;
76393;SDS011;65216;51.090;-115.352;2023-05-23T09:46:21;0.20;;;0.10;;
76393;SDS011;65216;51.090;-115.352;2023-05-23T09:48:53;0.50;;;0.10;;
76393;SDS011;65216;51.090;-115.352;2023-05-23T09:51:25;0.20;;;0.20;;
76393;SDS011;65216;51.090;-115.352;2023-05-23T09:53:53;0.30;;;0.20;;
76393;SDS011;65216;51.090;-115.352;2023-05-23T09:56:22;0.70;;;0.20;;
76393;SDS011;65216;51.090;-115.352;2023-05-23T09:58:53;0.30;;;0.20;;
76393;SDS011;65216;51.090;-115.352;2023-05-23T10:01:22;0.80;;;0.10;;
76393;SDS011;65216;51.090;-115.352;2023-05-23T10:03:53;0.10;;;0.10;;
76393;SDS011;65216;51.090;-115.352;2023-05-23T10:06:40;0.90;;;0.20;;
76393;SDS011;65216;51.090;-115.352;2023-05-23T10:09:16;0.20;;;0.10;;
76393;SDS011;65216;51.090;-115.352;2023-05-23T10:15:09;0.50;;;0.10;;
76393;SDS011;65216;51.090;-115.352;2023-05-23T10:20:29;0.30;;;0.20;;
76393;SDS011;65216;51.090;-115.352;2023-05-23T10:23:00;0.70;;;0.10;;
76393;SDS011;65216;51.090;-115.352;2023-05-23T10:25:30;0.30;;;0.10;;
76393;SDS011;65216;51.090;-115.352;2023-05-23T10:27:58;0.20;;;0.10;;
76393;SDS011;65216;51.090;-115.352;2023-05-23T10:30:26;0.10;;;0.10;;
76393;SDS011;65216;51.090;-115.352;2023-05-23T10:32:54;0.30;;;0.30;;
76393;SDS011;65216;51.090;-115.352;2023-05-23T10:38:59;0.80;;;0.20;;
76393;SDS011;65216;51.090;-115.352;2023-05-23T10:41:52;0.10;;;0.10;;
76393;SDS011;65216;51.090;-115.352;2023-05-23T10:44:33;0.70;;;0.10;;
76393;SDS011;65216;51.090;-115.352;2023-05-23T10:47:02;0.20;;;0.10;;
76393;SDS011;65216;51.090;-115.352;2023-05-23T10:49:45;0.20;;;0.10;;
76393;SDS011;65216;51.090;-115.352;2023-05-23T10:52:19;0.60;;;0.10;;
76393;SDS011;65216;51.090;-115.352;2023-05-23T10:54:53;0.60;;;0.20;;
76393;SDS011;65216;51.090;-115.352;2023-05-23T10:57:24;0.10;;;0.10;;
76393;SDS011;65216;51.090;-115.352;2023-05-23T10:59:52;0.30;;;0.10;;
76393;SDS011;65216;51.090;-115.352;2023-05-23T11:02:25;0.10;;;0.10;;
76393;SDS011;65216;51.090;-115.352;2023-05-23T11:08:10;0.10;;;0.10;;
76393;SDS011;65216;51.090;-115.352;2023-05-23T11:16:28;1.10;;;0.20;;
76393;SDS011;65216;51.090;-115.352;2023-05-23T11:21:45;0.20;;;0.10;;
76393;SDS011;65216;51.090;-115.352;2023-05-23T11:24:12;0.50;;;0.20;;
76393;SDS011;65216;51.090;-115.352;2023-05-23T11:26:39;1.00;;;0.10;;
76393;SDS011;65216;51.090;-115.352;2023-05-23T11:29:19;0.20;;;0.10;;
76393;SDS011;65216;51.090;-115.352;2023-05-23T11:31:46;0.70;;;0.20;;
76393;SDS011;65216;51.090;-115.352;2023-05-23T11:34:13;0.10;;;0.10;;
76393;SDS011;65216;51.090;-115.352;2023-05-23T11:36:40;0.10;;;0.10;;
76393;SDS011;65216;51.090;-115.352;2023-05-23T11:39:08;0.10;;;0.10;;
76393;SDS011;65216;51.090;-115.352;2023-05-23T11:41:37;0.40;;;0.10;;
76393;SDS011;65216;51.090;-115.352;2023-05-23T11:44:12;0.20;;;0.20;;
76393;SDS011;65216;51.090;-115.352;2023-05-23T11:46:40;0.40;;;0.00;;
76393;SDS011;65216;51.090;-115.352;2023-05-23T11:49:10;0.10;;;0.10;;
76393;SDS011;65216;51.090;-115.352;2023-05-23T11:51:37;0.10;;;0.10;;
76393;SDS011;65216;51.090;-115.352;2023-05-23T11:54:04;0.00;;;0.00;;
76393;SDS011;65216;51.090;-115.352;2023-05-23T11:56:38;0.10;;;0.10;;
76393;SDS011;65216;51.090;-115.352;2023-05-23T11:59:08;0.00;;;0.00;;
76393;SDS011;65216;51.090;-115.352;2023-05-23T12:01:36;0.20;;;0.00;;
76393;SDS011;65216;51.090;-115.352;2023-05-23T12:04:08;0.60;;;0.10;;
76393;SDS011;65216;51.090;-115.352;2023-05-23T12:06:41;1.00;;;0.20;;
76393;SDS011;65216;51.090;-115.352;2023-05-23T12:09:11;0.30;;;0.20;;
76393;SDS011;65216;51.090;-115.352;2023-05-23T12:11:39;0.30;;;0.10;;
76393;SDS011;65216;51.090;-115.352;2023-05-23T12:14:08;0.70;;;0.10;;
76393;SDS011;65216;51.090;-115.352;2023-05-23T12:16:42;1.20;;;0.20;;
76393;SDS011;65216;51.090;-115.352;2023-05-23T12:19:13;0.40;;;0.10;;
76393;SDS011;65216;51.090;-115.352;2023-05-23T12:21:44;0.20;;;0.10;;
76393;SDS011;65216;51.090;-115.352;2023-05-23T12:24:21;0.30;;;0.00;;
76393;SDS011;65216;51.090;-115.352;2023-05-23T12:29:32;0.10;;;0.10;;
76393;SDS011;65216;51.090;-115.352;2023-05-23T12:32:06;0.50;;;0.10;;
76393;SDS011;65216;51.090;-115.352;2023-05-23T12:34:33;0.20;;;0.20;;
76393;SDS011;65216;51.090;-115.352;2023-05-23T12:37:00;0.10;;;0.00;;
76393;SDS011;65216;51.090;-115.352;2023-05-23T12:39:29;0.00;;;0.00;;
76393;SDS011;65216;51.090;-115.352;2023-05-23T12:42:08;0.20;;;0.10;;
76393;SDS011;65216;51.090;-115.352;2023-05-23T12:44:40;0.20;;;0.00;;
76393;SDS011;65216;51.090;-115.352;2023-05-23T12:47:11;0.00;;;0.00;;
76393;SDS011;65216;51.090;-115.352;2023-05-23T12:49:38;0.00;;;0.00;;
76393;SDS011;65216;51.090;-115.352;2023-05-23T12:52:05;0.40;;;0.10;;
76393;SDS011;65216;51.090;-115.352;2023-05-23T12:54:32;0.20;;;0.10;;
76393;SDS011;65216;51.090;-115.352;2023-05-23T12:57:02;0.60;;;0.10;;
76393;SDS011;65216;51.090;-115.352;2023-05-23T12:59:29;0.40;;;0.10;;
76393;SDS011;65216;51.090;-115.352;2023-05-23T13:01:56;1.20;;;0.20;;
76393;SDS011;65216;51.090;-115.352;2023-05-23T13:04:27;0.50;;;0.10;;
76393;SDS011;65216;51.090;-115.352;2023-05-23T13:06:54;0.20;;;0.10;;
76393;SDS011;65216;51.090;-115.352;2023-05-23T13:09:21;1.40;;;0.10;;
76393;SDS011;65216;51.090;-115.352;2023-05-23T13:11:48;3.20;;;0.40;;
76393;SDS011;65216;51.090;-115.352;2023-05-23T13:14:15;2.00;;;0.40;;
76393;SDS011;65216;51.090;-115.352;2023-05-23T13:16:42;2.30;;;0.40;;
76393;SDS011;65216;51.090;-115.352;2023-05-23T13:19:10;3.60;;;0.50;;
76393;SDS011;65216;51.090;-115.352;2023-05-23T13:21:37;4.80;;;0.60;;
76393;SDS011;65216;51.090;-115.352;2023-05-23T13:24:07;5.60;;;0.70;;
76393;SDS011;65216;51.090;-115.352;2023-05-23T13:26:34;2.90;;;0.50;;
76393;SDS011;65216;51.090;-115.352;2023-05-23T13:29:01;5.00;;;0.40;;
76393;SDS011;65216;51.090;-115.352;2023-05-23T13:31:28;4.60;;;0.90;;
76393;SDS011;65216;51.090;-115.352;2023-05-23T13:33:55;4.80;;;0.60;;
76393;SDS011;65216;51.090;-115.352;2023-05-23T13:36:25;4.10;;;0.60;;
76393;SDS011;65216;51.090;-115.352;2023-05-23T13:38:52;5.70;;;0.70;;
76393;SDS011;65216;51.090;-115.352;2023-05-23T13:41:19;5.40;;;0.70;;
76393;SDS011;65216;51.090;-115.352;2023-05-23T13:43:46;5.70;;;0.80;;
76393;SDS011;65216;51.090;-115.352;2023-05-23T13:46:13;8.30;;;0.70;;
76393;SDS011;65216;51.090;-115.352;2023-05-23T13:48:40;7.20;;;0.90;;
76393;SDS011;65216;51.090;-115.352;2023-05-23T13:51:07;4.30;;;0.90;;
76393;SDS011;65216;51.090;-115.352;2023-05-23T13:53:34;8.30;;;0.90;;
76393;SDS011;65216;51.090;-115.352;2023-05-23T13:56:01;8.30;;;0.90;;
76393;SDS011;65216;51.090;-115.352;2023-05-23T13:58:29;10.30;;;1.20;;
76393;SDS011;65216;51.090;-115.352;2023-05-23T14:00:55;5.30;;;0.80;;
76393;SDS011;65216;51.090;-115.352;2023-05-23T14:03:23;5.60;;;0.90;;
76393;SDS011;65216;51.090;-115.352;2023-05-23T14:05:53;3.70;;;0.70;;
76393;SDS011;65216;51.090;-115.352;2023-05-23T14:08:20;2.70;;;0.60;;
76393;SDS011;65216;51.090;-115.352;2023-05-23T14:10:50;4.60;;;0.90;;
76393;SDS011;65216;51.090;-115.352;2023-05-23T14:13:18;5.80;;;0.60;;
76393;SDS011;65216;51.090;-115.352;2023-05-23T14:15:44;2.20;;;0.50;;
76393;SDS011;65216;51.090;-115.352;2023-05-23T14:18:12;2.10;;;0.30;;
76393;SDS011;65216;51.090;-115.352;2023-05-23T14:20:39;3.90;;;0.40;;
76393;SDS011;65216;51.090;-115.352;2023-05-23T14:23:06;4.60;;;0.50;;
76393;SDS011;65216;51.090;-115.352;2023-05-23T14:25:33;2.90;;;0.50;;
76393;SDS011;65216;51.090;-115.352;2023-05-23T14:28:00;4.50;;;0.70;;
76393;SDS011;65216;51.090;-115.352;2023-05-23T14:30:30;1.50;;;0.40;;
76393;SDS011;65216;51.090;-115.352;2023-05-23T14:32:57;2.20;;;0.50;;
76393;SDS011;65216;51.090;-115.352;2023-05-23T14:35:24;3.30;;;0.40;;
76393;SDS011;65216;51.090;-115.352;2023-05-23T14:37:51;3.40;;;0.40;;
76393;SDS011;65216;51.090;-115.352;2023-05-23T14:40:21;2.50;;;0.40;;
76393;SDS011;65216;51.090;-115.352;2023-05-23T14:42:48;4.00;;;0.40;;
76393;SDS011;65216;51.090;-115.352;2023-05-23T14:45:15;2.30;;;0.30;;
76393;SDS011;65216;51.090;-115.352;2023-05-23T14:47:42;3.40;;;0.50;;